sensor_id;sensor_type;location;lat;lon;timestamp;pressure;altitude;pressure_sealevel;temperature;humidity
50444;BME280;36370;52.216;21.142;2022-12-08T00:00:35;99712.31;;;0.71;100.00
50444;BME280;36370;52.216;21.142;2022-12-08T00:04:43;99721.63;;;0.76;100.00
50444;BME280;36370;52.216;21.142;2022-12-08T00:09:03;99718.84;;;0.82;100.00
50444;BME280;36370;52.216;21.142;2022-12-08T00:13:24;99722.75;;;0.68;100.00
50444;BME280;36370;52.216;21.142;2022-12-08T00:17:25;99731.38;;;0.67;100.00
50444;BME280;36370;52.216;21.142;2022-12-08T00:21:28;99735.13;;;0.57;100.00
50444;BME280;36370;52.216;21.142;2022-12-08T00:25:33;99749.22;;;0.48;100.00
50444;BME280;36370;52.216;21.142;2022-12-08T00:29:35;99756.78;;;0.55;100.00
50444;BME280;36370;52.216;21.142;2022-12-08T00:33:37;99769.56;;;0.59;100.00
50444;BME280;36370;52.216;21.142;2022-12-08T00:37:40;99764.53;;;0.55;100.00
50444;BME280;36370;52.216;21.142;2022-12-08T00:41:43;99757.56;;;0.57;100.00
50444;BME280;36370;52.216;21.142;2022-12-08T00:46:14;99767.22;;;0.51;100.00
50444;BME280;36370;52.216;21.142;2022-12-08T00:50:16;99780.97;;;0.52;100.00
50444;BME280;36370;52.216;21.142;2022-12-08T00:54:18;99779.28;;;0.51;100.00
50444;BME280;36370;52.216;21.142;2022-12-08T00:58:20;99786.72;;;0.62;100.00
50444;BME280;36370;52.216;21.142;2022-12-08T01:02:23;99798.00;;;0.59;100.00
50444;BME280;36370;52.216;21.142;2022-12-08T01:06:25;99802.06;;;0.38;100.00
50444;BME280;36370;52.216;21.142;2022-12-08T01:10:27;99803.97;;;0.31;100.00
50444;BME280;36370;52.216;21.142;2022-12-08T01:14:29;99810.53;;;0.12;100.00
50444;BME280;36370;52.216;21.142;2022-12-08T01:18:31;99805.53;;;0.06;100.00
50444;BME280;36370;52.216;21.142;2022-12-08T01:22:33;99819.06;;;0.14;100.00
50444;BME280;36370;52.216;21.142;2022-12-08T01:26:36;99814.41;;;-0.03;100.00
50444;BME280;36370;52.216;21.142;2022-12-08T01:30:39;99813.41;;;0.01;100.00
50444;BME280;36370;52.216;21.142;2022-12-08T01:34:41;99821.88;;;0.06;100.00
50444;BME280;36370;52.216;21.142;2022-12-08T01:38:43;99820.94;;;0.09;100.00
50444;BME280;36370;52.216;21.142;2022-12-08T01:42:45;99815.56;;;0.16;100.00
50444;BME280;36370;52.216;21.142;2022-12-08T01:46:47;99829.28;;;0.18;100.00
50444;BME280;36370;52.216;21.142;2022-12-08T01:50:50;99837.28;;;0.09;100.00
50444;BME280;36370;52.216;21.142;2022-12-08T01:54:57;99832.78;;;0.17;100.00
50444;BME280;36370;52.216;21.142;2022-12-08T01:59:00;99839.63;;;0.18;100.00
50444;BME280;36370;52.216;21.142;2022-12-08T02:03:06;99837.88;;;0.21;100.00
50444;BME280;36370;52.216;21.142;2022-12-08T02:07:11;99828.03;;;0.02;100.00
50444;BME280;36370;52.216;21.142;2022-12-08T02:11:15;99829.63;;;0.06;100.00
50444;BME280;36370;52.216;21.142;2022-12-08T02:15:17;99825.38;;;0.05;100.00
50444;BME280;36370;52.216;21.142;2022-12-08T02:24:10;99834.13;;;-0.01;100.00
50444;BME280;36370;52.216;21.142;2022-12-08T02:37:28;99843.50;;;0.04;100.00
50444;BME280;36370;52.216;21.142;2022-12-08T02:45:46;99842.03;;;-0.07;100.00
50444;BME280;36370;52.216;21.142;2022-12-08T02:49:49;99848.03;;;-0.05;100.00
50444;BME280;36370;52.216;21.142;2022-12-08T02:53:51;99860.63;;;0.06;100.00
50444;BME280;36370;52.216;21.142;2022-12-08T02:58:02;99866.66;;;0.07;100.00
50444;BME280;36370;52.216;21.142;2022-12-08T03:02:37;99868.44;;;0.03;100.00
50444;BME280;36370;52.216;21.142;2022-12-08T03:15:13;99864.28;;;-0.01;100.00
50444;BME280;36370;52.216;21.142;2022-12-08T03:19:22;99868.66;;;-0.03;100.00
50444;BME280;36370;52.216;21.142;2022-12-08T03:23:25;99873.09;;;-0.10;100.00
50444;BME280;36370;52.216;21.142;2022-12-08T03:27:28;99881.88;;;-0.15;100.00
50444;BME280;36370;52.216;21.142;2022-12-08T03:31:33;99896.41;;;-0.13;100.00
50444;BME280;36370;52.216;21.142;2022-12-08T03:35:38;99888.63;;;-0.11;100.00
50444;BME280;36370;52.216;21.142;2022-12-08T03:39:41;99890.25;;;-0.07;100.00
50444;BME280;36370;52.216;21.142;2022-12-08T03:43:54;99880.91;;;-0.13;100.00
50444;BME280;36370;52.216;21.142;2022-12-08T03:47:56;99887.69;;;-0.07;100.00
50444;BME280;36370;52.216;21.142;2022-12-08T03:51:58;99885.53;;;-0.24;100.00
50444;BME280;36370;52.216;21.142;2022-12-08T03:56:00;99888.97;;;-0.25;100.00
50444;BME280;36370;52.216;21.142;2022-12-08T04:00:05;99882.47;;;-0.40;100.00
50444;BME280;36370;52.216;21.142;2022-12-08T04:04:07;99882.41;;;-0.37;100.00
50444;BME280;36370;52.216;21.142;2022-12-08T04:08:09;99888.63;;;-0.46;100.00
50444;BME280;36370;52.216;21.142;2022-12-08T04:12:11;99887.84;;;-0.49;100.00
50444;BME280;36370;52.216;21.142;2022-12-08T04:16:22;99886.19;;;-0.52;100.00
50444;BME280;36370;52.216;21.142;2022-12-08T04:20:24;99892.66;;;-0.34;100.00
50444;BME280;36370;52.216;21.142;2022-12-08T04:24:26;99902.78;;;-0.26;100.00
50444;BME280;36370;52.216;21.142;2022-12-08T04:28:28;99904.34;;;-0.21;100.00
50444;BME280;36370;52.216;21.142;2022-12-08T04:32:30;99909.28;;;-0.11;100.00
50444;BME280;36370;52.216;21.142;2022-12-08T04:36:32;99924.88;;;-0.14;100.00
50444;BME280;36370;52.216;21.142;2022-12-08T04:40:34;99926.41;;;-0.07;100.00
50444;BME280;36370;52.216;21.142;2022-12-08T04:44:35;99919.44;;;-0.04;100.00
50444;BME280;36370;52.216;21.142;2022-12-08T04:48:37;99927.28;;;-0.08;100.00
50444;BME280;36370;52.216;21.142;2022-12-08T04:52:39;99936.75;;;-0.07;100.00
50444;BME280;36370;52.216;21.142;2022-12-08T04:56:41;99939.00;;;0.07;100.00
50444;BME280;36370;52.216;21.142;2022-12-08T05:00:43;99945.00;;;0.07;100.00
50444;BME280;36370;52.216;21.142;2022-12-08T05:04:46;99946.44;;;0.19;100.00
50444;BME280;36370;52.216;21.142;2022-12-08T05:08:48;99948.34;;;0.11;100.00
50444;BME280;36370;52.216;21.142;2022-12-08T05:12:49;99962.00;;;0.16;100.00
50444;BME280;36370;52.216;21.142;2022-12-08T05:16:52;99972.59;;;0.05;100.00
50444;BME280;36370;52.216;21.142;2022-12-08T05:20:54;99972.56;;;0.07;100.00
50444;BME280;36370;52.216;21.142;2022-12-08T05:24:55;99971.00;;;-0.01;100.00
50444;BME280;36370;52.216;21.142;2022-12-08T05:28:57;99965.97;;;-0.05;100.00
50444;BME280;36370;52.216;21.142;2022-12-08T05:32:59;99969.97;;;-0.28;100.00
50444;BME280;36370;52.216;21.142;2022-12-08T05:37:01;99966.56;;;-0.31;100.00
50444;BME280;36370;52.216;21.142;2022-12-08T05:41:08;99956.66;;;-0.50;100.00
50444;BME280;36370;52.216;21.142;2022-12-08T05:45:10;99936.31;;;-0.62;100.00
50444;BME280;36370;52.216;21.142;2022-12-08T05:49:12;99944.00;;;-0.61;100.00
50444;BME280;36370;52.216;21.142;2022-12-08T05:53:15;99930.69;;;-0.80;100.00
50444;BME280;36370;52.216;21.142;2022-12-08T05:57:17;99941.22;;;-0.91;100.00
50444;BME280;36370;52.216;21.142;2022-12-08T06:01:30;99941.47;;;-1.03;100.00
50444;BME280;36370;52.216;21.142;2022-12-08T06:05:33;99947.56;;;-1.05;100.00
50444;BME280;36370;52.216;21.142;2022-12-08T06:09:35;99960.41;;;-1.02;100.00
50444;BME280;36370;52.216;21.142;2022-12-08T06:13:37;99966.94;;;-0.86;100.00
50444;BME280;36370;52.216;21.142;2022-12-08T06:17:39;99982.81;;;-0.65;100.00
50444;BME280;36370;52.216;21.142;2022-12-08T06:21:41;99984.06;;;-0.43;100.00
50444;BME280;36370;52.216;21.142;2022-12-08T06:25:42;99996.50;;;-0.23;100.00
50444;BME280;36370;52.216;21.142;2022-12-08T06:29:45;100011.94;;;-0.20;100.00
50444;BME280;36370;52.216;21.142;2022-12-08T06:33:47;100006.69;;;-0.16;100.00
50444;BME280;36370;52.216;21.142;2022-12-08T06:37:48;100007.25;;;-0.04;100.00
50444;BME280;36370;52.216;21.142;2022-12-08T06:41:52;100000.41;;;-0.05;100.00
50444;BME280;36370;52.216;21.142;2022-12-08T06:46:16;99994.38;;;-0.05;100.00
50444;BME280;36370;52.216;21.142;2022-12-08T06:50:18;100012.31;;;0.01;100.00
50444;BME280;36370;52.216;21.142;2022-12-08T06:54:20;100013.78;;;0.11;100.00
50444;BME280;36370;52.216;21.142;2022-12-08T06:58:21;100024.34;;;0.02;100.00
50444;BME280;36370;52.216;21.142;2022-12-08T07:02:24;100033.06;;;-0.04;100.00
50444;BME280;36370;52.216;21.142;2022-12-08T07:06:25;100033.88;;;0.00;100.00
50444;BME280;36370;52.216;21.142;2022-12-08T07:10:27;100033.22;;;-0.10;100.00
50444;BME280;36370;52.216;21.142;2022-12-08T07:14:29;100041.81;;;-0.08;100.00
50444;BME280;36370;52.216;21.142;2022-12-08T07:18:31;100040.81;;;-0.04;100.00
50444;BME280;36370;52.216;21.142;2022-12-08T07:22:33;100040.63;;;0.06;100.00
50444;BME280;36370;52.216;21.142;2022-12-08T07:26:35;100054.53;;;0.00;100.00
50444;BME280;36370;52.216;21.142;2022-12-08T07:30:38;100059.78;;;-0.03;100.00
50444;BME280;36370;52.216;21.142;2022-12-08T07:34:40;100053.31;;;0.15;100.00
50444;BME280;36370;52.216;21.142;2022-12-08T07:38:42;100068.53;;;0.27;100.00
50444;BME280;36370;52.216;21.142;2022-12-08T07:42:44;100074.59;;;0.25;100.00
50444;BME280;36370;52.216;21.142;2022-12-08T07:46:46;100067.06;;;0.15;100.00
50444;BME280;36370;52.216;21.142;2022-12-08T07:50:48;100056.84;;;0.11;100.00
50444;BME280;36370;52.216;21.142;2022-12-08T07:54:50;100073.03;;;0.19;100.00
50444;BME280;36370;52.216;21.142;2022-12-08T07:58:52;100078.13;;;0.22;100.00
50444;BME280;36370;52.216;21.142;2022-12-08T08:02:54;100080.38;;;0.36;100.00
50444;BME280;36370;52.216;21.142;2022-12-08T08:06:56;100084.72;;;0.34;100.00
50444;BME280;36370;52.216;21.142;2022-12-08T08:10:58;100086.63;;;0.27;100.00
50444;BME280;36370;52.216;21.142;2022-12-08T08:15:00;100084.06;;;0.26;100.00
50444;BME280;36370;52.216;21.142;2022-12-08T08:19:02;100088.91;;;0.40;100.00
50444;BME280;36370;52.216;21.142;2022-12-08T08:23:04;100080.50;;;0.31;100.00
50444;BME280;36370;52.216;21.142;2022-12-08T08:27:06;100086.22;;;0.44;100.00
50444;BME280;36370;52.216;21.142;2022-12-08T08:31:08;100103.41;;;0.47;100.00
50444;BME280;36370;52.216;21.142;2022-12-08T08:35:10;100117.91;;;0.51;100.00
50444;BME280;36370;52.216;21.142;2022-12-08T08:39:12;100124.69;;;0.57;100.00
50444;BME280;36370;52.216;21.142;2022-12-08T08:43:14;100120.41;;;0.56;100.00
50444;BME280;36370;52.216;21.142;2022-12-08T08:47:38;100116.81;;;0.61;100.00
50444;BME280;36370;52.216;21.142;2022-12-08T08:51:40;100118.84;;;0.50;100.00
50444;BME280;36370;52.216;21.142;2022-12-08T08:55:42;100120.66;;;0.45;100.00
50444;BME280;36370;52.216;21.142;2022-12-08T08:59:46;100115.25;;;0.54;100.00
50444;BME280;36370;52.216;21.142;2022-12-08T09:03:51;100113.97;;;0.72;100.00
50444;BME280;36370;52.216;21.142;2022-12-08T09:07:53;100123.19;;;0.82;100.00
50444;BME280;36370;52.216;21.142;2022-12-08T09:11:56;100123.19;;;0.82;100.00
50444;BME280;36370;52.216;21.142;2022-12-08T09:16:03;100141.81;;;0.97;100.00
50444;BME280;36370;52.216;21.142;2022-12-08T09:20:06;100133.84;;;1.04;100.00
50444;BME280;36370;52.216;21.142;2022-12-08T09:24:09;100132.66;;;1.16;100.00
50444;BME280;36370;52.216;21.142;2022-12-08T09:28:16;100134.03;;;1.30;100.00
50444;BME280;36370;52.216;21.142;2022-12-08T09:32:18;100128.56;;;1.40;100.00
50444;BME280;36370;52.216;21.142;2022-12-08T09:36:21;100119.88;;;1.43;100.00
50444;BME280;36370;52.216;21.142;2022-12-08T09:40:24;100112.44;;;1.62;100.00
50444;BME280;36370;52.216;21.142;2022-12-08T09:44:45;100110.41;;;1.72;100.00
50444;BME280;36370;52.216;21.142;2022-12-08T09:48:53;100108.00;;;1.66;100.00
50444;BME280;36370;52.216;21.142;2022-12-08T09:53:08;100098.44;;;1.68;100.00
50444;BME280;36370;52.216;21.142;2022-12-08T09:57:17;100102.38;;;1.81;100.00
50444;BME280;36370;52.216;21.142;2022-12-08T10:01:23;100093.63;;;2.13;100.00
50444;BME280;36370;52.216;21.142;2022-12-08T10:05:29;100090.38;;;2.07;100.00
50444;BME280;36370;52.216;21.142;2022-12-08T10:09:42;100093.81;;;2.07;100.00
50444;BME280;36370;52.216;21.142;2022-12-08T10:14:06;100089.91;;;2.22;100.00
50444;BME280;36370;52.216;21.142;2022-12-08T10:18:24;100080.63;;;2.42;100.00
50444;BME280;36370;52.216;21.142;2022-12-08T10:22:33;100078.75;;;2.45;100.00
50444;BME280;36370;52.216;21.142;2022-12-08T10:26:40;100087.25;;;2.50;100.00
50444;BME280;36370;52.216;21.142;2022-12-08T10:30:44;100086.38;;;2.50;100.00
50444;BME280;36370;52.216;21.142;2022-12-08T10:35:07;100078.03;;;2.42;100.00
50444;BME280;36370;52.216;21.142;2022-12-08T10:39:38;100082.66;;;2.32;100.00
50444;BME280;36370;52.216;21.142;2022-12-08T10:43:53;100057.03;;;2.23;100.00
50444;BME280;36370;52.216;21.142;2022-12-08T10:48:04;100055.97;;;2.28;100.00
50444;BME280;36370;52.216;21.142;2022-12-08T10:52:20;100043.25;;;2.22;100.00
50444;BME280;36370;52.216;21.142;2022-12-08T10:56:26;100020.06;;;2.18;100.00
50444;BME280;36370;52.216;21.142;2022-12-08T11:00:29;100027.34;;;2.31;100.00
50444;BME280;36370;52.216;21.142;2022-12-08T11:04:35;100027.63;;;2.24;100.00
50444;BME280;36370;52.216;21.142;2022-12-08T11:08:53;100021.22;;;2.34;100.00
50444;BME280;36370;52.216;21.142;2022-12-08T11:12:59;100022.38;;;2.52;100.00
50444;BME280;36370;52.216;21.142;2022-12-08T11:17:07;100022.56;;;2.46;100.00
50444;BME280;36370;52.216;21.142;2022-12-08T11:21:13;100016.09;;;2.32;100.00
50444;BME280;36370;52.216;21.142;2022-12-08T11:25:19;100015.78;;;2.42;100.00
50444;BME280;36370;52.216;21.142;2022-12-08T11:29:23;100018.81;;;2.55;100.00
50444;BME280;36370;52.216;21.142;2022-12-08T11:33:27;100012.63;;;2.59;100.00
50444;BME280;36370;52.216;21.142;2022-12-08T11:37:38;100005.69;;;2.59;100.00
50444;BME280;36370;52.216;21.142;2022-12-08T11:41:42;100000.53;;;2.58;100.00
50444;BME280;36370;52.216;21.142;2022-12-08T11:45:50;99994.63;;;2.54;100.00
50444;BME280;36370;52.216;21.142;2022-12-08T11:50:01;99984.09;;;2.59;100.00
50444;BME280;36370;52.216;21.142;2022-12-08T11:58:23;99966.16;;;2.27;100.00
50444;BME280;36370;52.216;21.142;2022-12-08T12:02:28;99969.31;;;2.10;100.00
50444;BME280;36370;52.216;21.142;2022-12-08T12:19:36;99964.22;;;1.52;100.00
50444;BME280;36370;52.216;21.142;2022-12-08T12:27:47;99954.94;;;1.73;100.00
50444;BME280;36370;52.216;21.142;2022-12-08T12:31:57;99942.34;;;1.89;100.00
50444;BME280;36370;52.216;21.142;2022-12-08T12:36:03;99941.56;;;1.87;100.00
50444;BME280;36370;52.216;21.142;2022-12-08T12:40:21;99928.28;;;1.96;100.00
50444;BME280;36370;52.216;21.142;2022-12-08T12:48:29;99927.09;;;2.07;100.00
50444;BME280;36370;52.216;21.142;2022-12-08T12:56:47;99923.91;;;1.98;100.00
50444;BME280;36370;52.216;21.142;2022-12-08T13:05:24;99915.25;;;2.00;100.00
50444;BME280;36370;52.216;21.142;2022-12-08T13:09:37;99914.66;;;1.91;100.00
50444;BME280;36370;52.216;21.142;2022-12-08T13:14:01;99905.19;;;1.90;100.00
50444;BME280;36370;52.216;21.142;2022-12-08T13:18:06;99911.03;;;1.95;100.00
50444;BME280;36370;52.216;21.142;2022-12-08T13:22:45;99920.94;;;1.84;100.00
50444;BME280;36370;52.216;21.142;2022-12-08T13:31:43;99913.84;;;1.89;100.00
50444;BME280;36370;52.216;21.142;2022-12-08T13:36:06;99913.00;;;1.89;100.00
50444;BME280;36370;52.216;21.142;2022-12-08T13:40:17;99909.72;;;1.84;100.00
50444;BME280;36370;52.216;21.142;2022-12-08T13:44:28;99908.28;;;1.75;100.00
50444;BME280;36370;52.216;21.142;2022-12-08T13:48:53;99909.88;;;1.79;100.00
50444;BME280;36370;52.216;21.142;2022-12-08T13:53:22;99908.91;;;1.82;100.00
50444;BME280;36370;52.216;21.142;2022-12-08T13:57:48;99901.34;;;1.75;100.00
50444;BME280;36370;52.216;21.142;2022-12-08T14:01:51;99905.84;;;1.70;100.00
50444;BME280;36370;52.216;21.142;2022-12-08T14:05:53;99899.16;;;1.63;100.00
50444;BME280;36370;52.216;21.142;2022-12-08T14:10:28;99908.06;;;1.54;100.00
50444;BME280;36370;52.216;21.142;2022-12-08T14:14:39;99900.34;;;1.53;100.00
50444;BME280;36370;52.216;21.142;2022-12-08T14:19:16;99892.72;;;1.48;100.00
50444;BME280;36370;52.216;21.142;2022-12-08T14:23:18;99892.13;;;1.40;100.00
50444;BME280;36370;52.216;21.142;2022-12-08T14:27:23;99895.63;;;1.39;100.00
50444;BME280;36370;52.216;21.142;2022-12-08T14:31:26;99900.75;;;1.40;100.00
50444;BME280;36370;52.216;21.142;2022-12-08T14:35:30;99906.00;;;1.37;100.00
50444;BME280;36370;52.216;21.142;2022-12-08T14:39:32;99906.13;;;1.34;100.00
50444;BME280;36370;52.216;21.142;2022-12-08T14:43:34;99916.88;;;1.49;100.00
50444;BME280;36370;52.216;21.142;2022-12-08T14:47:37;99918.03;;;1.40;100.00
50444;BME280;36370;52.216;21.142;2022-12-08T14:51:38;99916.59;;;1.58;100.00
50444;BME280;36370;52.216;21.142;2022-12-08T14:55:42;99910.47;;;1.60;100.00
50444;BME280;36370;52.216;21.142;2022-12-08T14:59:45;99905.97;;;1.66;100.00
50444;BME280;36370;52.216;21.142;2022-12-08T15:03:47;99905.69;;;1.75;100.00
50444;BME280;36370;52.216;21.142;2022-12-08T15:07:55;99905.44;;;1.83;100.00
50444;BME280;36370;52.216;21.142;2022-12-08T15:24:39;99896.84;;;1.54;100.00
50444;BME280;36370;52.216;21.142;2022-12-08T15:28:41;99900.84;;;1.64;100.00
50444;BME280;36370;52.216;21.142;2022-12-08T15:32:43;99899.25;;;1.60;100.00
50444;BME280;36370;52.216;21.142;2022-12-08T15:36:45;99896.06;;;1.52;100.00
50444;BME280;36370;52.216;21.142;2022-12-08T15:40:47;99892.09;;;1.68;100.00
50444;BME280;36370;52.216;21.142;2022-12-08T15:44:50;99881.13;;;1.60;100.00
50444;BME280;36370;52.216;21.142;2022-12-08T15:48:52;99893.22;;;1.59;100.00
50444;BME280;36370;52.216;21.142;2022-12-08T15:52:59;99890.84;;;1.53;100.00
50444;BME280;36370;52.216;21.142;2022-12-08T15:57:01;99901.16;;;1.55;100.00
50444;BME280;36370;52.216;21.142;2022-12-08T16:01:21;99896.25;;;1.46;100.00
50444;BME280;36370;52.216;21.142;2022-12-08T16:05:24;99910.75;;;1.51;100.00
50444;BME280;36370;52.216;21.142;2022-12-08T16:09:45;99915.84;;;1.54;100.00
50444;BME280;36370;52.216;21.142;2022-12-08T16:13:47;99912.28;;;1.57;100.00
50444;BME280;36370;52.216;21.142;2022-12-08T16:18:19;99899.34;;;1.57;100.00
50444;BME280;36370;52.216;21.142;2022-12-08T16:22:26;99893.63;;;1.47;100.00
50444;BME280;36370;52.216;21.142;2022-12-08T16:26:48;99895.97;;;1.55;100.00
50444;BME280;36370;52.216;21.142;2022-12-08T16:31:13;99900.25;;;1.56;100.00
50444;BME280;36370;52.216;21.142;2022-12-08T16:35:21;99889.59;;;1.65;100.00
50444;BME280;36370;52.216;21.142;2022-12-08T16:39:23;99895.06;;;1.83;100.00
50444;BME280;36370;52.216;21.142;2022-12-08T16:43:25;99891.66;;;1.82;100.00
50444;BME280;36370;52.216;21.142;2022-12-08T16:47:27;99894.44;;;1.76;100.00
50444;BME280;36370;52.216;21.142;2022-12-08T16:51:29;99888.03;;;1.86;100.00
50444;BME280;36370;52.216;21.142;2022-12-08T16:55:32;99893.53;;;1.77;100.00
50444;BME280;36370;52.216;21.142;2022-12-08T16:59:36;99884.22;;;1.71;100.00
50444;BME280;36370;52.216;21.142;2022-12-08T17:03:39;99887.00;;;1.65;100.00
50444;BME280;36370;52.216;21.142;2022-12-08T17:07:43;99891.19;;;1.69;100.00
50444;BME280;36370;52.216;21.142;2022-12-08T17:11:45;99882.56;;;1.69;100.00
50444;BME280;36370;52.216;21.142;2022-12-08T17:15:47;99883.47;;;1.68;100.00
50444;BME280;36370;52.216;21.142;2022-12-08T17:19:49;99892.78;;;1.73;100.00
50444;BME280;36370;52.216;21.142;2022-12-08T17:23:50;99888.25;;;1.80;100.00
50444;BME280;36370;52.216;21.142;2022-12-08T17:27:52;99895.22;;;1.78;100.00
50444;BME280;36370;52.216;21.142;2022-12-08T17:31:54;99885.50;;;1.85;100.00
50444;BME280;36370;52.216;21.142;2022-12-08T17:35:56;99890.00;;;1.79;100.00
50444;BME280;36370;52.216;21.142;2022-12-08T17:39:58;99884.03;;;1.77;100.00
50444;BME280;36370;52.216;21.142;2022-12-08T17:44:00;99880.88;;;1.94;100.00
50444;BME280;36370;52.216;21.142;2022-12-08T17:48:02;99880.25;;;1.86;100.00
50444;BME280;36370;52.216;21.142;2022-12-08T17:52:04;99886.84;;;1.96;100.00
50444;BME280;36370;52.216;21.142;2022-12-08T17:56:17;99890.97;;;2.02;100.00
50444;BME280;36370;52.216;21.142;2022-12-08T18:00:19;99900.88;;;1.89;100.00
50444;BME280;36370;52.216;21.142;2022-12-08T18:04:21;99895.19;;;2.05;100.00
50444;BME280;36370;52.216;21.142;2022-12-08T18:08:23;99899.84;;;1.95;100.00
50444;BME280;36370;52.216;21.142;2022-12-08T18:12:25;99910.75;;;2.05;100.00
50444;BME280;36370;52.216;21.142;2022-12-08T18:16:27;99909.91;;;2.04;100.00
50444;BME280;36370;52.216;21.142;2022-12-08T18:20:29;99908.25;;;2.02;100.00
50444;BME280;36370;52.216;21.142;2022-12-08T18:24:31;99904.13;;;1.96;100.00
50444;BME280;36370;52.216;21.142;2022-12-08T18:28:33;99907.00;;;1.88;100.00
50444;BME280;36370;52.216;21.142;2022-12-08T18:32:36;99899.13;;;1.91;100.00
50444;BME280;36370;52.216;21.142;2022-12-08T18:36:38;99893.94;;;1.91;100.00
50444;BME280;36370;52.216;21.142;2022-12-08T18:40:39;99896.53;;;1.91;100.00
50444;BME280;36370;52.216;21.142;2022-12-08T18:44:41;99891.50;;;1.87;100.00
50444;BME280;36370;52.216;21.142;2022-12-08T18:48:48;99893.78;;;1.96;100.00
50444;BME280;36370;52.216;21.142;2022-12-08T18:52:50;99891.78;;;1.77;100.00
50444;BME280;36370;52.216;21.142;2022-12-08T18:56:52;99886.25;;;1.61;100.00
50444;BME280;36370;52.216;21.142;2022-12-08T19:00:54;99887.31;;;1.56;100.00
50444;BME280;36370;52.216;21.142;2022-12-08T19:04:56;99877.34;;;1.43;100.00
50444;BME280;36370;52.216;21.142;2022-12-08T19:08:57;99878.81;;;1.24;100.00
50444;BME280;36370;52.216;21.142;2022-12-08T19:12:59;99882.41;;;1.20;100.00
50444;BME280;36370;52.216;21.142;2022-12-08T19:17:01;99881.59;;;1.18;100.00
50444;BME280;36370;52.216;21.142;2022-12-08T19:21:03;99880.31;;;1.03;100.00
50444;BME280;36370;52.216;21.142;2022-12-08T19:25:06;99881.31;;;0.99;100.00
50444;BME280;36370;52.216;21.142;2022-12-08T19:29:08;99885.63;;;0.98;100.00
50444;BME280;36370;52.216;21.142;2022-12-08T19:33:10;99876.53;;;0.85;100.00
50444;BME280;36370;52.216;21.142;2022-12-08T19:37:12;99885.47;;;0.75;100.00
50444;BME280;36370;52.216;21.142;2022-12-08T19:41:14;99880.44;;;0.70;100.00
50444;BME280;36370;52.216;21.142;2022-12-08T19:45:35;99883.50;;;0.53;100.00
50444;BME280;36370;52.216;21.142;2022-12-08T19:49:37;99873.03;;;0.58;100.00
50444;BME280;36370;52.216;21.142;2022-12-08T19:53:39;99873.19;;;0.51;100.00
50444;BME280;36370;52.216;21.142;2022-12-08T19:57:49;99885.34;;;0.48;100.00
50444;BME280;36370;52.216;21.142;2022-12-08T20:01:52;99889.72;;;0.46;100.00
50444;BME280;36370;52.216;21.142;2022-12-08T20:05:56;99888.00;;;0.45;100.00
50444;BME280;36370;52.216;21.142;2022-12-08T20:09:58;99887.59;;;0.29;100.00
50444;BME280;36370;52.216;21.142;2022-12-08T20:14:00;99896.34;;;0.23;100.00
50444;BME280;36370;52.216;21.142;2022-12-08T20:18:02;99895.59;;;0.20;100.00
50444;BME280;36370;52.216;21.142;2022-12-08T20:22:04;99895.63;;;0.18;100.00
50444;BME280;36370;52.216;21.142;2022-12-08T20:26:09;99908.72;;;0.12;100.00
50444;BME280;36370;52.216;21.142;2022-12-08T20:30:11;99904.75;;;-0.02;100.00
50444;BME280;36370;52.216;21.142;2022-12-08T20:34:18;99909.25;;;-0.10;100.00
50444;BME280;36370;52.216;21.142;2022-12-08T20:38:20;99911.03;;;-0.12;100.00
50444;BME280;36370;52.216;21.142;2022-12-08T20:42:22;99912.06;;;-0.19;100.00
50444;BME280;36370;52.216;21.142;2022-12-08T20:46:24;99911.16;;;-0.16;100.00
50444;BME280;36370;52.216;21.142;2022-12-08T20:50:26;99915.66;;;-0.25;100.00
50444;BME280;36370;52.216;21.142;2022-12-08T20:54:29;99924.81;;;-0.13;100.00
50444;BME280;36370;52.216;21.142;2022-12-08T20:58:31;99925.06;;;-0.22;100.00
50444;BME280;36370;52.216;21.142;2022-12-08T21:02:33;99923.34;;;-0.22;100.00
50444;BME280;36370;52.216;21.142;2022-12-08T21:06:35;99916.72;;;-0.33;100.00
50444;BME280;36370;52.216;21.142;2022-12-08T21:10:38;99915.03;;;-0.34;100.00
50444;BME280;36370;52.216;21.142;2022-12-08T21:14:44;99912.50;;;-0.38;100.00
50444;BME280;36370;52.216;21.142;2022-12-08T21:18:46;99911.84;;;-0.46;100.00
50444;BME280;36370;52.216;21.142;2022-12-08T21:22:48;99915.31;;;-0.47;100.00
50444;BME280;36370;52.216;21.142;2022-12-08T21:26:50;99918.88;;;-0.51;100.00
50444;BME280;36370;52.216;21.142;2022-12-08T21:30:52;99918.13;;;-0.58;100.00
50444;BME280;36370;52.216;21.142;2022-12-08T21:34:54;99913.00;;;-0.59;100.00
50444;BME280;36370;52.216;21.142;2022-12-08T21:38:56;99910.75;;;-0.73;100.00
50444;BME280;36370;52.216;21.142;2022-12-08T21:43:03;99916.97;;;-0.82;100.00
50444;BME280;36370;52.216;21.142;2022-12-08T21:47:05;99918.00;;;-0.91;100.00
50444;BME280;36370;52.216;21.142;2022-12-08T21:51:07;99908.59;;;-0.92;100.00
50444;BME280;36370;52.216;21.142;2022-12-08T21:55:10;99908.00;;;-1.04;100.00
50444;BME280;36370;52.216;21.142;2022-12-08T21:59:13;99908.16;;;-1.12;100.00
50444;BME280;36370;52.216;21.142;2022-12-08T22:03:15;99907.50;;;-1.22;100.00
50444;BME280;36370;52.216;21.142;2022-12-08T22:07:19;99895.69;;;-1.34;100.00
50444;BME280;36370;52.216;21.142;2022-12-08T22:11:21;99901.03;;;-1.43;100.00
50444;BME280;36370;52.216;21.142;2022-12-08T22:15:23;99900.19;;;-1.42;100.00
50444;BME280;36370;52.216;21.142;2022-12-08T22:19:25;99901.06;;;-1.45;100.00
50444;BME280;36370;52.216;21.142;2022-12-08T22:23:27;99900.13;;;-1.39;100.00
50444;BME280;36370;52.216;21.142;2022-12-08T22:27:29;99907.78;;;-1.36;100.00
50444;BME280;36370;52.216;21.142;2022-12-08T22:31:33;99910.38;;;-1.37;100.00